sensor_id;sensor_type;location;lat;lon;timestamp;temperature;humidity
11083;DHT22;5595;50.186;8.468;2023-07-20T00:02:04;16.90;99.90
11083;DHT22;5595;50.186;8.468;2023-07-20T00:04:33;16.90;99.90
11083;DHT22;5595;50.186;8.468;2023-07-20T00:07:00;16.80;99.90
11083;DHT22;5595;50.186;8.468;2023-07-20T00:09:28;16.80;99.90
11083;DHT22;5595;50.186;8.468;2023-07-20T00:11:55;16.80;99.90
11083;DHT22;5595;50.186;8.468;2023-07-20T00:14:22;16.80;99.90
11083;DHT22;5595;50.186;8.468;2023-07-20T00:16:50;16.80;99.90
11083;DHT22;5595;50.186;8.468;2023-07-20T00:19:21;16.70;99.90
11083;DHT22;5595;50.186;8.468;2023-07-20T00:21:48;16.70;99.90
11083;DHT22;5595;50.186;8.468;2023-07-20T00:24:15;16.70;99.90
11083;DHT22;5595;50.186;8.468;2023-07-20T00:26:43;16.70;99.90
11083;DHT22;5595;50.186;8.468;2023-07-20T00:29:10;16.70;99.90
11083;DHT22;5595;50.186;8.468;2023-07-20T00:31:37;16.60;99.90
11083;DHT22;5595;50.186;8.468;2023-07-20T00:34:04;16.60;99.90
11083;DHT22;5595;50.186;8.468;2023-07-20T00:36:31;16.60;99.90
11083;DHT22;5595;50.186;8.468;2023-07-20T00:38:58;16.50;99.90
11083;DHT22;5595;50.186;8.468;2023-07-20T00:41:25;16.50;99.90
11083;DHT22;5595;50.186;8.468;2023-07-20T00:43:56;16.50;99.90
11083;DHT22;5595;50.186;8.468;2023-07-20T00:46:23;16.50;99.90
11083;DHT22;5595;50.186;8.468;2023-07-20T00:48:51;16.50;99.90
11083;DHT22;5595;50.186;8.468;2023-07-20T00:51:19;16.40;99.90
11083;DHT22;5595;50.186;8.468;2023-07-20T00:53:47;16.40;99.90
11083;DHT22;5595;50.186;8.468;2023-07-20T00:56:13;16.40;99.90
11083;DHT22;5595;50.186;8.468;2023-07-20T00:58:41;16.40;99.90
11083;DHT22;5595;50.186;8.468;2023-07-20T01:01:09;16.30;99.90
11083;DHT22;5595;50.186;8.468;2023-07-20T01:03:36;16.30;99.90
11083;DHT22;5595;50.186;8.468;2023-07-20T01:06:12;16.30;99.90
11083;DHT22;5595;50.186;8.468;2023-07-20T01:08:51;16.20;99.90
11083;DHT22;5595;50.186;8.468;2023-07-20T01:11:28;16.20;99.90
11083;DHT22;5595;50.186;8.468;2023-07-20T01:13:57;16.20;99.90
11083;DHT22;5595;50.186;8.468;2023-07-20T01:16:27;16.10;99.90
11083;DHT22;5595;50.186;8.468;2023-07-20T01:18:54;16.10;99.90
11083;DHT22;5595;50.186;8.468;2023-07-20T01:21:24;16.10;99.90
11083;DHT22;5595;50.186;8.468;2023-07-20T01:24:29;16.10;99.90
11083;DHT22;5595;50.186;8.468;2023-07-20T01:27:22;16.10;99.90
11083;DHT22;5595;50.186;8.468;2023-07-20T01:30:13;16.10;99.90
11083;DHT22;5595;50.186;8.468;2023-07-20T01:32:43;16.00;99.90
11083;DHT22;5595;50.186;8.468;2023-07-20T01:35:13;16.00;99.90
11083;DHT22;5595;50.186;8.468;2023-07-20T01:37:41;16.00;99.90
11083;DHT22;5595;50.186;8.468;2023-07-20T01:40:10;16.00;99.90
11083;DHT22;5595;50.186;8.468;2023-07-20T01:42:37;16.00;99.90
11083;DHT22;5595;50.186;8.468;2023-07-20T01:45:04;16.00;99.90
11083;DHT22;5595;50.186;8.468;2023-07-20T01:47:31;16.00;99.90
11083;DHT22;5595;50.186;8.468;2023-07-20T01:49:59;16.00;99.90
11083;DHT22;5595;50.186;8.468;2023-07-20T01:52:26;15.90;99.90
11083;DHT22;5595;50.186;8.468;2023-07-20T01:54:53;15.90;99.90
11083;DHT22;5595;50.186;8.468;2023-07-20T01:57:19;15.90;99.90
11083;DHT22;5595;50.186;8.468;2023-07-20T01:59:46;15.90;99.90
11083;DHT22;5595;50.186;8.468;2023-07-20T02:02:13;15.90;99.90
11083;DHT22;5595;50.186;8.468;2023-07-20T02:04:40;15.90;99.90
11083;DHT22;5595;50.186;8.468;2023-07-20T02:07:08;15.90;99.90
11083;DHT22;5595;50.186;8.468;2023-07-20T02:09:34;15.90;99.90
11083;DHT22;5595;50.186;8.468;2023-07-20T02:12:01;15.90;99.90
11083;DHT22;5595;50.186;8.468;2023-07-20T02:14:28;15.90;99.90
11083;DHT22;5595;50.186;8.468;2023-07-20T02:16:55;15.90;99.90
11083;DHT22;5595;50.186;8.468;2023-07-20T02:19:25;15.90;99.90
11083;DHT22;5595;50.186;8.468;2023-07-20T02:21:52;15.90;99.90
11083;DHT22;5595;50.186;8.468;2023-07-20T02:24:20;15.90;99.90
11083;DHT22;5595;50.186;8.468;2023-07-20T02:26:47;15.90;99.90
11083;DHT22;5595;50.186;8.468;2023-07-20T02:29:14;15.90;99.90
11083;DHT22;5595;50.186;8.468;2023-07-20T02:31:40;15.90;99.90
11083;DHT22;5595;50.186;8.468;2023-07-20T02:34:08;16.00;99.90
11083;DHT22;5595;50.186;8.468;2023-07-20T02:36:35;16.00;99.90
11083;DHT22;5595;50.186;8.468;2023-07-20T02:39:02;16.00;99.90
11083;DHT22;5595;50.186;8.468;2023-07-20T02:41:32;16.10;99.90
11083;DHT22;5595;50.186;8.468;2023-07-20T02:43:59;16.10;99.90
11083;DHT22;5595;50.186;8.468;2023-07-20T02:46:26;16.20;99.90
11083;DHT22;5595;50.186;8.468;2023-07-20T02:48:55;16.20;99.90
11083;DHT22;5595;50.186;8.468;2023-07-20T02:51:22;16.20;99.90
11083;DHT22;5595;50.186;8.468;2023-07-20T02:53:49;16.30;99.90
11083;DHT22;5595;50.186;8.468;2023-07-20T02:56:15;16.40;99.90
11083;DHT22;5595;50.186;8.468;2023-07-20T02:58:45;16.30;99.90
11083;DHT22;5595;50.186;8.468;2023-07-20T03:01:12;16.30;99.90
11083;DHT22;5595;50.186;8.468;2023-07-20T03:03:40;16.30;99.90
11083;DHT22;5595;50.186;8.468;2023-07-20T03:06:07;16.30;99.90
11083;DHT22;5595;50.186;8.468;2023-07-20T03:08:35;16.30;99.90
11083;DHT22;5595;50.186;8.468;2023-07-20T03:11:02;16.30;99.90
11083;DHT22;5595;50.186;8.468;2023-07-20T03:13:28;16.30;99.90
11083;DHT22;5595;50.186;8.468;2023-07-20T03:15:57;16.30;99.90
11083;DHT22;5595;50.186;8.468;2023-07-20T03:18:23;16.30;99.90
11083;DHT22;5595;50.186;8.468;2023-07-20T03:20:50;16.20;99.90
11083;DHT22;5595;50.186;8.468;2023-07-20T03:23:17;16.20;99.90
11083;DHT22;5595;50.186;8.468;2023-07-20T03:25:44;16.10;99.90
11083;DHT22;5595;50.186;8.468;2023-07-20T03:28:10;16.10;99.90
11083;DHT22;5595;50.186;8.468;2023-07-20T03:30:37;16.10;99.90
11083;DHT22;5595;50.186;8.468;2023-07-20T03:33:05;16.00;99.90
11083;DHT22;5595;50.186;8.468;2023-07-20T03:35:32;16.00;99.90
11083;DHT22;5595;50.186;8.468;2023-07-20T03:37:59;15.90;99.90
11083;DHT22;5595;50.186;8.468;2023-07-20T03:40:25;15.90;99.90
11083;DHT22;5595;50.186;8.468;2023-07-20T03:42:52;15.90;99.90
11083;DHT22;5595;50.186;8.468;2023-07-20T03:45:21;15.90;99.90
11083;DHT22;5595;50.186;8.468;2023-07-20T03:47:50;15.80;99.90
11083;DHT22;5595;50.186;8.468;2023-07-20T03:50:18;15.80;99.90
11083;DHT22;5595;50.186;8.468;2023-07-20T03:52:45;15.80;99.90
11083;DHT22;5595;50.186;8.468;2023-07-20T03:55:11;15.70;99.90
11083;DHT22;5595;50.186;8.468;2023-07-20T03:57:38;15.70;99.90
11083;DHT22;5595;50.186;8.468;2023-07-20T04:00:06;15.70;99.90
11083;DHT22;5595;50.186;8.468;2023-07-20T04:02:34;15.70;99.90
11083;DHT22;5595;50.186;8.468;2023-07-20T04:05:01;15.70;99.90
11083;DHT22;5595;50.186;8.468;2023-07-20T04:07:29;15.70;99.90
11083;DHT22;5595;50.186;8.468;2023-07-20T04:09:56;15.60;99.90
11083;DHT22;5595;50.186;8.468;2023-07-20T04:12:23;15.70;99.90
11083;DHT22;5595;50.186;8.468;2023-07-20T04:14:49;15.70;99.90
11083;DHT22;5595;50.186;8.468;2023-07-20T04:17:17;15.70;99.90
11083;DHT22;5595;50.186;8.468;2023-07-20T04:19:44;15.70;99.90
11083;DHT22;5595;50.186;8.468;2023-07-20T04:22:11;15.70;99.90
11083;DHT22;5595;50.186;8.468;2023-07-20T04:24:42;15.70;99.90
11083;DHT22;5595;50.186;8.468;2023-07-20T04:27:09;15.70;99.90
11083;DHT22;5595;50.186;8.468;2023-07-20T04:29:35;15.70;99.90
11083;DHT22;5595;50.186;8.468;2023-07-20T04:32:02;15.70;99.90
11083;DHT22;5595;50.186;8.468;2023-07-20T04:34:29;15.70;99.90
11083;DHT22;5595;50.186;8.468;2023-07-20T04:36:56;15.70;99.90
11083;DHT22;5595;50.186;8.468;2023-07-20T04:39:23;15.70;99.90
11083;DHT22;5595;50.186;8.468;2023-07-20T04:41:51;15.70;99.90
11083;DHT22;5595;50.186;8.468;2023-07-20T04:44:18;15.70;99.90
11083;DHT22;5595;50.186;8.468;2023-07-20T04:46:45;15.70;99.90
11083;DHT22;5595;50.186;8.468;2023-07-20T04:49:11;15.80;99.90
11083;DHT22;5595;50.186;8.468;2023-07-20T04:51:38;15.80;99.90
11083;DHT22;5595;50.186;8.468;2023-07-20T04:54:05;15.80;99.90
11083;DHT22;5595;50.186;8.468;2023-07-20T04:56:32;15.80;99.90
11083;DHT22;5595;50.186;8.468;2023-07-20T04:59:00;15.90;99.90
11083;DHT22;5595;50.186;8.468;2023-07-20T05:01:27;15.90;99.90
11083;DHT22;5595;50.186;8.468;2023-07-20T05:03:54;15.90;99.90
11083;DHT22;5595;50.186;8.468;2023-07-20T05:06:20;16.00;99.90
11083;DHT22;5595;50.186;8.468;2023-07-20T05:08:47;16.00;99.90
11083;DHT22;5595;50.186;8.468;2023-07-20T05:11:14;16.00;99.90
11083;DHT22;5595;50.186;8.468;2023-07-20T05:13:41;16.10;99.90
11083;DHT22;5595;50.186;8.468;2023-07-20T05:16:09;16.20;99.90
11083;DHT22;5595;50.186;8.468;2023-07-20T05:18:36;16.30;99.90
11083;DHT22;5595;50.186;8.468;2023-07-20T05:21:03;16.40;99.90
11083;DHT22;5595;50.186;8.468;2023-07-20T05:23:29;16.50;99.90
11083;DHT22;5595;50.186;8.468;2023-07-20T05:25:57;16.60;99.90
11083;DHT22;5595;50.186;8.468;2023-07-20T05:28:25;16.60;99.90
11083;DHT22;5595;50.186;8.468;2023-07-20T05:30:51;16.70;99.90
11083;DHT22;5595;50.186;8.468;2023-07-20T05:33:20;16.80;99.90
11083;DHT22;5595;50.186;8.468;2023-07-20T05:35:47;16.90;99.90
11083;DHT22;5595;50.186;8.468;2023-07-20T05:38:14;16.90;99.90
11083;DHT22;5595;50.186;8.468;2023-07-20T05:40:42;16.90;99.90
11083;DHT22;5595;50.186;8.468;2023-07-20T05:43:09;16.90;99.90
11083;DHT22;5595;50.186;8.468;2023-07-20T05:45:35;16.90;99.90
11083;DHT22;5595;50.186;8.468;2023-07-20T05:48:02;16.90;99.90
11083;DHT22;5595;50.186;8.468;2023-07-20T05:50:31;16.90;99.90
11083;DHT22;5595;50.186;8.468;2023-07-20T05:52:57;16.90;99.90
11083;DHT22;5595;50.186;8.468;2023-07-20T05:55:24;16.90;99.90
11083;DHT22;5595;50.186;8.468;2023-07-20T05:57:51;17.00;99.90
11083;DHT22;5595;50.186;8.468;2023-07-20T06:00:20;17.00;99.90
11083;DHT22;5595;50.186;8.468;2023-07-20T06:02:51;17.10;99.90
11083;DHT22;5595;50.186;8.468;2023-07-20T06:05:18;17.30;99.90
11083;DHT22;5595;50.186;8.468;2023-07-20T06:07:47;17.40;99.90
11083;DHT22;5595;50.186;8.468;2023-07-20T06:10:13;17.50;99.90
11083;DHT22;5595;50.186;8.468;2023-07-20T06:12:40;17.50;99.90
11083;DHT22;5595;50.186;8.468;2023-07-20T06:15:24;17.40;99.90
11083;DHT22;5595;50.186;8.468;2023-07-20T06:17:51;17.40;99.90
11083;DHT22;5595;50.186;8.468;2023-07-20T06:20:19;17.40;99.90
11083;DHT22;5595;50.186;8.468;2023-07-20T06:22:47;17.50;99.90
11083;DHT22;5595;50.186;8.468;2023-07-20T06:25:14;17.70;99.90
11083;DHT22;5595;50.186;8.468;2023-07-20T06:27:42;17.70;99.90
11083;DHT22;5595;50.186;8.468;2023-07-20T06:30:10;17.80;99.90
11083;DHT22;5595;50.186;8.468;2023-07-20T06:32:38;17.90;99.90
11083;DHT22;5595;50.186;8.468;2023-07-20T06:35:05;18.20;99.90
11083;DHT22;5595;50.186;8.468;2023-07-20T06:37:33;18.30;99.90
11083;DHT22;5595;50.186;8.468;2023-07-20T06:40:02;18.30;99.90
11083;DHT22;5595;50.186;8.468;2023-07-20T06:42:29;18.50;99.90
11083;DHT22;5595;50.186;8.468;2023-07-20T06:44:56;18.60;99.90
11083;DHT22;5595;50.186;8.468;2023-07-20T06:47:24;18.60;99.90
11083;DHT22;5595;50.186;8.468;2023-07-20T06:49:50;18.60;99.90
11083;DHT22;5595;50.186;8.468;2023-07-20T06:52:17;18.60;99.90
11083;DHT22;5595;50.186;8.468;2023-07-20T06:54:44;18.50;99.90
11083;DHT22;5595;50.186;8.468;2023-07-20T06:57:12;18.50;99.90
11083;DHT22;5595;50.186;8.468;2023-07-20T06:59:39;18.50;99.90
11083;DHT22;5595;50.186;8.468;2023-07-20T07:02:05;18.50;99.90
11083;DHT22;5595;50.186;8.468;2023-07-20T07:04:32;18.70;99.90
11083;DHT22;5595;50.186;8.468;2023-07-20T07:06:59;18.90;99.90
11083;DHT22;5595;50.186;8.468;2023-07-20T07:09:26;19.10;99.90
11083;DHT22;5595;50.186;8.468;2023-07-20T07:11:53;19.30;99.90
11083;DHT22;5595;50.186;8.468;2023-07-20T07:14:21;19.30;99.90
11083;DHT22;5595;50.186;8.468;2023-07-20T07:16:48;19.40;99.90
11083;DHT22;5595;50.186;8.468;2023-07-20T07:19:15;19.50;99.90
11083;DHT22;5595;50.186;8.468;2023-07-20T07:21:41;19.60;99.90
11083;DHT22;5595;50.186;8.468;2023-07-20T07:24:08;19.70;99.90
11083;DHT22;5595;50.186;8.468;2023-07-20T07:26:35;19.80;99.90
11083;DHT22;5595;50.186;8.468;2023-07-20T07:29:02;19.80;99.90
11083;DHT22;5595;50.186;8.468;2023-07-20T07:31:33;19.70;99.90
11083;DHT22;5595;50.186;8.468;2023-07-20T07:34:00;19.90;99.90
11083;DHT22;5595;50.186;8.468;2023-07-20T07:36:27;20.00;99.90
11083;DHT22;5595;50.186;8.468;2023-07-20T07:38:54;20.20;99.90
11083;DHT22;5595;50.186;8.468;2023-07-20T07:41:21;20.20;99.90
11083;DHT22;5595;50.186;8.468;2023-07-20T07:43:48;20.20;99.90
11083;DHT22;5595;50.186;8.468;2023-07-20T07:46:15;20.40;99.90
11083;DHT22;5595;50.186;8.468;2023-07-20T07:48:43;20.50;99.90
11083;DHT22;5595;50.186;8.468;2023-07-20T07:51:10;20.70;99.90
11083;DHT22;5595;50.186;8.468;2023-07-20T07:53:37;21.00;99.90
11083;DHT22;5595;50.186;8.468;2023-07-20T07:56:06;21.10;99.90
11083;DHT22;5595;50.186;8.468;2023-07-20T07:58:33;21.20;99.90
11083;DHT22;5595;50.186;8.468;2023-07-20T08:01:05;21.30;99.90
11083;DHT22;5595;50.186;8.468;2023-07-20T08:03:32;21.50;99.90
11083;DHT22;5595;50.186;8.468;2023-07-20T08:06:02;21.70;99.90
11083;DHT22;5595;50.186;8.468;2023-07-20T08:08:30;21.70;99.90
11083;DHT22;5595;50.186;8.468;2023-07-20T08:10:57;21.70;99.90
11083;DHT22;5595;50.186;8.468;2023-07-20T08:13:24;21.90;99.90
11083;DHT22;5595;50.186;8.468;2023-07-20T08:15:51;22.00;99.90
11083;DHT22;5595;50.186;8.468;2023-07-20T08:18:18;22.00;99.90
11083;DHT22;5595;50.186;8.468;2023-07-20T08:20:45;22.30;99.90
11083;DHT22;5595;50.186;8.468;2023-07-20T08:23:14;22.60;99.90
11083;DHT22;5595;50.186;8.468;2023-07-20T08:25:40;22.90;99.90
11083;DHT22;5595;50.186;8.468;2023-07-20T08:28:09;23.10;99.90
11083;DHT22;5595;50.186;8.468;2023-07-20T08:30:40;23.10;99.90
11083;DHT22;5595;50.186;8.468;2023-07-20T08:33:07;23.20;99.90
11083;DHT22;5595;50.186;8.468;2023-07-20T08:35:34;23.30;99.90
11083;DHT22;5595;50.186;8.468;2023-07-20T08:38:01;23.40;99.90
11083;DHT22;5595;50.186;8.468;2023-07-20T08:40:31;23.50;99.90
11083;DHT22;5595;50.186;8.468;2023-07-20T08:42:59;23.50;99.90
11083;DHT22;5595;50.186;8.468;2023-07-20T08:45:27;23.70;99.90
11083;DHT22;5595;50.186;8.468;2023-07-20T08:47:56;23.80;99.90
11083;DHT22;5595;50.186;8.468;2023-07-20T08:50:25;24.00;99.90
11083;DHT22;5595;50.186;8.468;2023-07-20T08:52:52;23.80;98.70
11083;DHT22;5595;50.186;8.468;2023-07-20T08:55:20;23.20;98.50
11083;DHT22;5595;50.186;8.468;2023-07-20T08:57:50;22.90;98.90
11083;DHT22;5595;50.186;8.468;2023-07-20T09:00:19;22.50;99.30
11083;DHT22;5595;50.186;8.468;2023-07-20T09:02:48;22.40;99.40
11083;DHT22;5595;50.186;8.468;2023-07-20T09:05:15;22.30;99.30
11083;DHT22;5595;50.186;8.468;2023-07-20T09:07:42;22.10;99.40
11083;DHT22;5595;50.186;8.468;2023-07-20T09:10:09;22.20;99.70
11083;DHT22;5595;50.186;8.468;2023-07-20T09:12:38;22.40;99.50
11083;DHT22;5595;50.186;8.468;2023-07-20T09:15:07;22.60;99.60
11083;DHT22;5595;50.186;8.468;2023-07-20T09:17:35;22.40;99.20
11083;DHT22;5595;50.186;8.468;2023-07-20T09:20:02;22.20;99.00
11083;DHT22;5595;50.186;8.468;2023-07-20T09:22:33;21.80;98.70
11083;DHT22;5595;50.186;8.468;2023-07-20T09:25:00;21.50;98.80
11083;DHT22;5595;50.186;8.468;2023-07-20T09:27:35;21.40;98.80
11083;DHT22;5595;50.186;8.468;2023-07-20T09:30:03;21.70;98.50
11083;DHT22;5595;50.186;8.468;2023-07-20T09:32:32;22.10;98.90
11083;DHT22;5595;50.186;8.468;2023-07-20T09:35:12;22.50;98.50
11083;DHT22;5595;50.186;8.468;2023-07-20T09:37:41;22.40;97.70
11083;DHT22;5595;50.186;8.468;2023-07-20T09:40:15;22.30;96.80
11083;DHT22;5595;50.186;8.468;2023-07-20T09:42:41;22.00;96.90
11083;DHT22;5595;50.186;8.468;2023-07-20T09:45:09;22.30;97.40
11083;DHT22;5595;50.186;8.468;2023-07-20T09:47:38;22.40;97.20
11083;DHT22;5595;50.186;8.468;2023-07-20T09:50:07;22.50;97.10
11083;DHT22;5595;50.186;8.468;2023-07-20T09:52:37;22.70;96.60
11083;DHT22;5595;50.186;8.468;2023-07-20T09:55:06;23.10;96.30
11083;DHT22;5595;50.186;8.468;2023-07-20T09:57:34;23.50;95.90
11083;DHT22;5595;50.186;8.468;2023-07-20T10:00:06;23.90;95.80
11083;DHT22;5595;50.186;8.468;2023-07-20T10:02:44;24.20;94.90
11083;DHT22;5595;50.186;8.468;2023-07-20T10:05:13;24.40;94.10
11083;DHT22;5595;50.186;8.468;2023-07-20T10:07:44;24.50;93.90
11083;DHT22;5595;50.186;8.468;2023-07-20T10:10:14;24.50;93.40
11083;DHT22;5595;50.186;8.468;2023-07-20T10:12:43;24.40;93.40
11083;DHT22;5595;50.186;8.468;2023-07-20T10:15:13;23.90;92.70
11083;DHT22;5595;50.186;8.468;2023-07-20T10:17:49;23.30;92.90
11083;DHT22;5595;50.186;8.468;2023-07-20T10:20:20;23.00;93.30
11083;DHT22;5595;50.186;8.468;2023-07-20T10:22:50;22.90;93.80
11083;DHT22;5595;50.186;8.468;2023-07-20T10:25:20;23.20;93.60
11083;DHT22;5595;50.186;8.468;2023-07-20T10:27:48;23.30;93.60
11083;DHT22;5595;50.186;8.468;2023-07-20T10:30:17;23.70;93.40
11083;DHT22;5595;50.186;8.468;2023-07-20T10:32:45;23.70;91.80
11083;DHT22;5595;50.186;8.468;2023-07-20T10:35:14;23.60;91.70
11083;DHT22;5595;50.186;8.468;2023-07-20T10:37:52;23.60;92.20
11083;DHT22;5595;50.186;8.468;2023-07-20T10:40:30;23.50;92.10
11083;DHT22;5595;50.186;8.468;2023-07-20T10:43:05;23.00;91.90
11083;DHT22;5595;50.186;8.468;2023-07-20T10:45:39;22.70;92.30
11083;DHT22;5595;50.186;8.468;2023-07-20T10:48:13;22.60;93.00
11083;DHT22;5595;50.186;8.468;2023-07-20T10:50:41;23.00;93.10
11083;DHT22;5595;50.186;8.468;2023-07-20T10:53:13;23.50;93.40
11083;DHT22;5595;50.186;8.468;2023-07-20T10:55:41;24.10;93.00
11083;DHT22;5595;50.186;8.468;2023-07-20T10:58:10;24.60;92.70
11083;DHT22;5595;50.186;8.468;2023-07-20T11:00:37;24.70;90.80
11083;DHT22;5595;50.186;8.468;2023-07-20T11:03:04;24.60;90.30
11083;DHT22;5595;50.186;8.468;2023-07-20T11:05:37;24.20;90.40
11083;DHT22;5595;50.186;8.468;2023-07-20T11:08:07;23.80;90.50
11083;DHT22;5595;50.186;8.468;2023-07-20T11:10:35;23.50;90.60
11083;DHT22;5595;50.186;8.468;2023-07-20T11:13:19;23.30;91.00
11083;DHT22;5595;50.186;8.468;2023-07-20T11:15:47;23.30;91.20
11083;DHT22;5595;50.186;8.468;2023-07-20T11:18:14;23.40;90.90
11083;DHT22;5595;50.186;8.468;2023-07-20T11:20:42;23.50;91.00
11083;DHT22;5595;50.186;8.468;2023-07-20T11:23:09;23.80;91.10
11083;DHT22;5595;50.186;8.468;2023-07-20T11:25:38;24.10;91.10
11083;DHT22;5595;50.186;8.468;2023-07-20T11:28:09;24.50;90.80
11083;DHT22;5595;50.186;8.468;2023-07-20T11:30:37;24.70;89.70
11083;DHT22;5595;50.186;8.468;2023-07-20T11:33:04;24.80;86.70
11083;DHT22;5595;50.186;8.468;2023-07-20T11:35:34;24.80;87.10
11083;DHT22;5595;50.186;8.468;2023-07-20T11:38:03;24.70;86.00
11083;DHT22;5595;50.186;8.468;2023-07-20T11:40:32;24.40;84.80
11083;DHT22;5595;50.186;8.468;2023-07-20T11:42:59;24.10;84.40
11083;DHT22;5595;50.186;8.468;2023-07-20T11:45:26;24.20;85.40
11083;DHT22;5595;50.186;8.468;2023-07-20T11:47:58;24.40;85.70
11083;DHT22;5595;50.186;8.468;2023-07-20T11:50:25;24.30;85.50
11083;DHT22;5595;50.186;8.468;2023-07-20T11:52:52;24.20;84.60
11083;DHT22;5595;50.186;8.468;2023-07-20T11:55:20;24.00;84.70
11083;DHT22;5595;50.186;8.468;2023-07-20T11:58:01;24.00;84.50
11083;DHT22;5595;50.186;8.468;2023-07-20T12:00:28;24.00;83.10
11083;DHT22;5595;50.186;8.468;2023-07-20T12:02:55;24.10;81.80
11083;DHT22;5595;50.186;8.468;2023-07-20T12:05:22;24.30;81.00
11083;DHT22;5595;50.186;8.468;2023-07-20T12:07:49;24.70;81.40
11083;DHT22;5595;50.186;8.468;2023-07-20T12:10:25;24.90;80.00
11083;DHT22;5595;50.186;8.468;2023-07-20T12:12:52;24.80;79.80
11083;DHT22;5595;50.186;8.468;2023-07-20T12:15:21;24.70;79.70
11083;DHT22;5595;50.186;8.468;2023-07-20T12:17:50;24.50;79.00
11083;DHT22;5595;50.186;8.468;2023-07-20T12:20:26;24.20;79.50
11083;DHT22;5595;50.186;8.468;2023-07-20T12:22:55;24.00;79.30
11083;DHT22;5595;50.186;8.468;2023-07-20T12:25:22;23.90;78.60
11083;DHT22;5595;50.186;8.468;2023-07-20T12:27:50;24.00;79.50
11083;DHT22;5595;50.186;8.468;2023-07-20T12:30:17;24.20;79.70
11083;DHT22;5595;50.186;8.468;2023-07-20T12:32:46;24.70;79.30
11083;DHT22;5595;50.186;8.468;2023-07-20T12:35:12;24.90;78.80
11083;DHT22;5595;50.186;8.468;2023-07-20T12:37:40;25.10;78.60
11083;DHT22;5595;50.186;8.468;2023-07-20T12:40:08;25.50;78.20
11083;DHT22;5595;50.186;8.468;2023-07-20T12:42:36;25.70;76.40
11083;DHT22;5595;50.186;8.468;2023-07-20T12:45:06;25.80;77.00
11083;DHT22;5595;50.186;8.468;2023-07-20T12:47:33;26.00;76.30
11083;DHT22;5595;50.186;8.468;2023-07-20T12:50:00;26.00;75.00
11083;DHT22;5595;50.186;8.468;2023-07-20T12:52:31;25.80;73.90
11083;DHT22;5595;50.186;8.468;2023-07-20T12:54:58;25.60;74.50
11083;DHT22;5595;50.186;8.468;2023-07-20T12:57:26;25.50;75.00
11083;DHT22;5595;50.186;8.468;2023-07-20T12:59:53;25.50;75.00
11083;DHT22;5595;50.186;8.468;2023-07-20T13:02:21;25.50;74.40
11083;DHT22;5595;50.186;8.468;2023-07-20T13:04:48;25.70;73.80
11083;DHT22;5595;50.186;8.468;2023-07-20T13:07:15;25.80;72.50
11083;DHT22;5595;50.186;8.468;2023-07-20T13:09:41;26.00;72.60
11083;DHT22;5595;50.186;8.468;2023-07-20T13:12:08;26.40;71.50
11083;DHT22;5595;50.186;8.468;2023-07-20T13:14:35;26.70;71.10
11083;DHT22;5595;50.186;8.468;2023-07-20T13:17:02;26.70;69.70
11083;DHT22;5595;50.186;8.468;2023-07-20T13:19:30;26.70;69.00
11083;DHT22;5595;50.186;8.468;2023-07-20T13:21:57;26.60;69.50
11083;DHT22;5595;50.186;8.468;2023-07-20T13:24:24;26.50;69.50
11083;DHT22;5595;50.186;8.468;2023-07-20T13:26:50;26.30;68.80
11083;DHT22;5595;50.186;8.468;2023-07-20T13:29:17;26.10;68.20
11083;DHT22;5595;50.186;8.468;2023-07-20T13:31:44;25.80;68.40
11083;DHT22;5595;50.186;8.468;2023-07-20T13:34:12;25.50;69.10
11083;DHT22;5595;50.186;8.468;2023-07-20T13:36:40;25.40;70.10
11083;DHT22;5595;50.186;8.468;2023-07-20T13:39:06;25.20;70.50
11083;DHT22;5595;50.186;8.468;2023-07-20T13:41:34;25.10;70.80
11083;DHT22;5595;50.186;8.468;2023-07-20T13:44:01;24.90;71.30
11083;DHT22;5595;50.186;8.468;2023-07-20T13:46:27;24.80;71.90
11083;DHT22;5595;50.186;8.468;2023-07-20T13:48:54;24.70;72.00
11083;DHT22;5595;50.186;8.468;2023-07-20T13:51:21;24.60;72.40
11083;DHT22;5595;50.186;8.468;2023-07-20T13:53:49;24.50;72.20
11083;DHT22;5595;50.186;8.468;2023-07-20T13:56:16;24.50;72.10
11083;DHT22;5595;50.186;8.468;2023-07-20T13:58:43;24.60;71.00
11083;DHT22;5595;50.186;8.468;2023-07-20T14:01:10;24.50;69.70
11083;DHT22;5595;50.186;8.468;2023-07-20T14:03:36;24.40;68.10
11083;DHT22;5595;50.186;8.468;2023-07-20T14:06:04;24.20;68.10
11083;DHT22;5595;50.186;8.468;2023-07-20T14:08:30;24.20;68.70
11083;DHT22;5595;50.186;8.468;2023-07-20T14:11:00;24.20;68.70
11083;DHT22;5595;50.186;8.468;2023-07-20T14:13:27;24.40;69.60
11083;DHT22;5595;50.186;8.468;2023-07-20T14:15:53;24.70;69.40
11083;DHT22;5595;50.186;8.468;2023-07-20T14:18:20;24.90;68.70
11083;DHT22;5595;50.186;8.468;2023-07-20T14:20:47;25.20;68.30
11083;DHT22;5595;50.186;8.468;2023-07-20T14:23:14;25.50;67.70
11083;DHT22;5595;50.186;8.468;2023-07-20T14:25:41;25.70;66.90
11083;DHT22;5595;50.186;8.468;2023-07-20T14:28:09;25.90;67.20
11083;DHT22;5595;50.186;8.468;2023-07-20T14:30:36;26.20;66.40
11083;DHT22;5595;50.186;8.468;2023-07-20T14:33:03;26.40;64.30
11083;DHT22;5595;50.186;8.468;2023-07-20T14:35:29;26.40;63.00
11083;DHT22;5595;50.186;8.468;2023-07-20T14:37:56;26.30;62.50
11083;DHT22;5595;50.186;8.468;2023-07-20T14:40:23;26.30;62.60
11083;DHT22;5595;50.186;8.468;2023-07-20T14:42:50;26.30;62.90
11083;DHT22;5595;50.186;8.468;2023-07-20T14:45:19;26.40;63.70
11083;DHT22;5595;50.186;8.468;2023-07-20T14:47:46;26.40;63.00
11083;DHT22;5595;50.186;8.468;2023-07-20T14:50:19;26.30;62.40
11083;DHT22;5595;50.186;8.468;2023-07-20T14:52:46;26.40;62.10
11083;DHT22;5595;50.186;8.468;2023-07-20T14:55:12;26.40;62.40
11083;DHT22;5595;50.186;8.468;2023-07-20T14:57:39;26.30;61.30
11083;DHT22;5595;50.186;8.468;2023-07-20T15:00:07;26.10;60.70
11083;DHT22;5595;50.186;8.468;2023-07-20T15:02:37;25.70;61.40
11083;DHT22;5595;50.186;8.468;2023-07-20T15:05:07;25.40;62.00
11083;DHT22;5595;50.186;8.468;2023-07-20T15:07:34;25.30;62.40
11083;DHT22;5595;50.186;8.468;2023-07-20T15:10:01;25.10;62.30
11083;DHT22;5595;50.186;8.468;2023-07-20T15:12:28;25.00;62.60
11083;DHT22;5595;50.186;8.468;2023-07-20T15:15:04;24.90;62.90
11083;DHT22;5595;50.186;8.468;2023-07-20T15:17:31;24.90;63.30
11083;DHT22;5595;50.186;8.468;2023-07-20T15:20:00;24.90;63.70
11083;DHT22;5595;50.186;8.468;2023-07-20T15:22:30;24.80;63.60
11083;DHT22;5595;50.186;8.468;2023-07-20T15:24:57;24.80;64.00
11083;DHT22;5595;50.186;8.468;2023-07-20T15:27:23;24.80;63.90
11083;DHT22;5595;50.186;8.468;2023-07-20T15:29:50;24.70;63.70
11083;DHT22;5595;50.186;8.468;2023-07-20T15:32:18;24.60;63.40
11083;DHT22;5595;50.186;8.468;2023-07-20T15:34:45;24.50;64.00
11083;DHT22;5595;50.186;8.468;2023-07-20T15:37:14;24.60;64.50
11083;DHT22;5595;50.186;8.468;2023-07-20T15:39:40;24.70;65.00
11083;DHT22;5595;50.186;8.468;2023-07-20T15:42:08;24.70;64.40
11083;DHT22;5595;50.186;8.468;2023-07-20T15:44:35;24.50;64.20
11083;DHT22;5595;50.186;8.468;2023-07-20T15:47:02;24.50;64.20
11083;DHT22;5595;50.186;8.468;2023-07-20T15:49:29;24.40;64.70
11083;DHT22;5595;50.186;8.468;2023-07-20T15:51:55;24.60;65.10